Time;durP1;ratioP1;P1;durP2;ratioP2;P2;SDS_P1;SDS_P2;PMS_P1;PMS_P2;Temp;Humidity;BMP_temperature;BMP_pressure;BME280_temperature;BME280_humidity;BME280_pressure;Samples;Min_cycle;Max_cycle;Signal;HPM_P1;HPM_P2
2022/09/29 00:01:32;;;;;;;3.78;3.10;;;7.50;99.90;;;;;;5025544;28;20420;-80
2022/09/29 00:03:58;;;;;;;3.28;2.72;;;7.50;99.90;;;;;;5001929;28;20544;-80
2022/09/29 00:06:24;;;;;;;5.18;3.70;;;7.50;99.90;;;;;;5022394;28;20040;-80
2022/09/29 00:08:50;;;;;;;5.93;4.13;;;8.30;99.90;;;;;;5028312;28;20087;-79
2022/09/29 00:11:17;;;;;;;4.75;2.95;;;8.50;99.90;;;;;;5011251;28;20071;-81
2022/09/29 00:13:45;;;;;;;4.50;3.20;;;7.60;99.90;;;;;;5048139;28;20024;-80
2022/09/29 00:16:11;;;;;;;4.35;3.22;;;8.10;99.90;;;;;;5047020;28;20040;-79
2022/09/29 00:18:37;;;;;;;6.70;3.72;;;8.40;99.90;;;;;;5029798;28;20170;-80
2022/09/29 00:21:09;;;;;;;5.55;4.00;;;7.50;99.90;;;;;;5038283;28;20044;-80
2022/09/29 00:23:36;;;;;;;5.07;4.13;;;7.60;99.90;;;;;;5048540;28;20044;-81
2022/09/29 00:26:09;;;;;;;4.50;3.90;;;7.50;99.90;;;;;;5048091;28;20611;-80
2022/09/29 00:28:36;;;;;;;4.57;3.45;;;7.50;99.90;;;;;;5037584;28;20033;-81
2022/09/29 00:31:04;;;;;;;5.50;4.13;;;7.50;99.90;;;;;;5023600;28;20029;-81
2022/09/29 00:33:32;;;;;;;4.75;4.28;;;7.50;99.90;;;;;;5028534;28;20128;-81
2022/09/29 00:36:03;;;;;;;4.10;3.22;;;7.60;99.90;;;;;;5038285;28;20107;-80
2022/09/29 00:38:30;;;;;;;5.07;4.38;;;7.60;99.90;;;;;;5055119;28;20056;-81
2022/09/29 00:40:56;;;;;;;4.85;4.10;;;8.20;99.90;;;;;;5026816;28;20040;-81
2022/09/29 00:43:54;;;;;;;7.53;5.05;;;7.50;99.90;;;;;;5027171;28;20629;-80
2022/09/29 00:46:39;;;;;;;6.55;5.10;;;7.50;99.90;;;;;;5043821;28;20486;-81
2022/09/29 00:49:13;;;;;;;5.30;4.25;;;7.50;99.90;;;;;;5030192;28;20041;-80
2022/09/29 00:51:42;;;;;;;6.72;5.30;;;7.50;99.90;;;;;;5028814;28;20044;-81
2022/09/29 00:54:09;;;;;;;5.22;4.03;;;7.50;99.90;;;;;;5044804;28;20412;-81
2022/09/29 00:56:40;;;;;;;5.82;4.93;;;7.50;99.90;;;;;;5019691;28;20485;-80
2022/09/29 00:59:15;;;;;;;5.55;4.57;;;7.60;99.90;;;;;;5074698;22;20046;-86
2022/09/29 01:01:41;;;;;;;5.95;4.85;;;7.50;99.90;;;;;;5029531;28;20795;-82
2022/09/29 01:04:18;;;;;;;7.35;5.80;;;8.00;99.90;;;;;;4996460;28;20453;-84
2022/09/29 01:06:54;;;;;;;6.10;4.63;;;7.50;99.90;;;;;;5024881;28;21482;-84
2022/09/29 01:09:26;;;;;;;6.28;5.60;;;8.10;99.90;;;;;;5045884;28;20037;-83
2022/09/29 01:11:53;;;;;;;6.35;5.07;;;7.50;99.90;;;;;;5035205;28;20032;-86
2022/09/29 01:14:20;;;;;;;5.97;4.50;;;7.40;99.90;;;;;;4997708;28;20033;-86
2022/09/29 01:16:46;;;;;;;4.88;4.25;;;8.30;99.90;;;;;;5017350;28;20119;-84
2022/09/29 01:19:44;;;;;;;7.15;5.00;;;7.30;99.90;;;;;;5014192;28;20133;-86
2022/09/29 01:22:32;;;;;;;6.55;4.70;;;7.40;99.90;;;;;;5045798;28;20052;-85
2022/09/29 01:25:16;;;;;;;5.45;4.45;;;7.30;99.90;;;;;;5021184;28;20062;-88
2022/09/29 01:28:18;;;;;;;4.15;3.65;;;7.30;99.90;;;;;;5051558;28;20404;-85
2022/09/29 01:30:59;;;;;;;5.43;4.70;;;7.30;99.90;;;;;;5025508;28;20147;-82
2022/09/29 01:33:27;;;;;;;6.07;4.85;;;7.20;99.90;;;;;;5050826;28;20041;-87
2022/09/29 01:36:20;;;;;;;4.97;4.45;;;7.20;99.90;;;;;;5048346;28;20056;-86
2022/09/29 01:39:18;;;;;;;5.20;4.03;;;7.10;99.90;;;;;;5033563;28;20580;-82
2022/09/29 01:41:55;;;;;;;6.43;4.32;;;7.10;99.90;;;;;;5044718;28;20073;-86
2022/09/29 01:44:43;;;;;;;5.60;4.03;;;7.70;99.90;;;;;;5033717;28;20051;-86
2022/09/29 01:47:11;;;;;;;4.82;3.85;;;7.00;99.90;;;;;;5043095;28;20037;-86
2022/09/29 01:49:42;;;;;;;5.95;4.47;;;7.60;99.90;;;;;;5046608;28;20555;-85
2022/09/29 01:52:18;;;;;;;5.00;4.10;;;7.40;99.90;;;;;;5033931;28;20508;-85
2022/09/29 01:54:56;;;;;;;5.90;4.03;;;7.00;99.90;;;;;;5035757;28;20029;-84
2022/09/29 01:57:48;;;;;;;6.55;4.40;;;7.00;99.90;;;;;;5030454;28;20068;-86
2022/09/29 02:00:17;;;;;;;4.30;3.70;;;7.30;99.90;;;;;;5027155;28;20150;-86
2022/09/29 02:02:48;;;;;;;5.70;4.75;;;6.90;99.90;;;;;;5050058;28;20044;-84
2022/09/29 02:05:25;;;;;;;4.63;3.70;;;6.90;99.90;;;;;;5029887;28;20041;-86
2022/09/29 02:07:53;;;;;;;5.25;3.17;;;7.20;99.90;;;;;;5046197;28;20034;-85
2022/09/29 02:10:26;;;;;;;4.10;3.70;;;6.80;99.90;;;;;;5011747;28;20071;-86
2022/09/29 02:12:53;;;;;;;5.82;4.40;;;6.90;99.90;;;;;;5034885;28;20028;-84
2022/09/29 02:15:25;;;;;;;6.22;5.07;;;6.80;99.90;;;;;;5013230;28;20036;-88
2022/09/29 02:17:53;;;;;;;4.82;4.32;;;7.00;99.90;;;;;;5027157;28;20048;-84
2022/09/29 02:20:19;;;;;;;5.70;4.30;;;6.80;99.90;;;;;;5018581;28;20036;-85
2022/09/29 02:22:45;;;;;;;5.85;4.28;;;7.70;99.90;;;;;;5013372;28;20128;-88
2022/09/29 02:25:14;;;;;;;6.45;4.43;;;7.80;99.90;;;;;;5012439;28;20127;-85
2022/09/29 02:27:40;;;;;;;6.68;5.18;;;7.60;99.90;;;;;;5037263;28;20115;-86
2022/09/29 02:30:07;;;;;;;5.32;4.80;;;6.70;99.90;;;;;;5012924;28;20480;-86
2022/09/29 02:32:34;;;;;;;6.15;4.70;;;6.80;99.90;;;;;;5032095;28;20037;-86
2022/09/29 02:35:03;;;;;;;11.77;5.60;;;6.80;99.90;;;;;;5042586;28;20036;-86
2022/09/29 02:37:38;;;;;;;10.82;4.97;;;6.80;99.90;;;;;;5029002;28;20044;-85
2022/09/29 02:40:17;;;;;;;5.35;4.28;;;6.80;99.90;;;;;;5026176;28;20074;-86
2022/09/29 02:43:01;;;;;;;9.25;5.97;;;6.80;99.90;;;;;;5030382;28;20048;-87
2022/09/29 02:45:52;;;;;;;10.63;5.70;;;6.80;99.90;;;;;;5025910;28;20117;-85
2022/09/29 02:48:40;;;;;;;9.57;6.40;;;6.80;99.90;;;;;;5031731;28;20052;-87
2022/09/29 02:51:17;;;;;;;17.48;6.57;;;6.80;99.90;;;;;;5032360;28;20045;-87
2022/09/29 02:53:51;;;;;;;11.35;5.65;;;6.80;99.90;;;;;;5047325;28;20068;-86
2022/09/29 02:56:35;;;;;;;12.70;6.28;;;6.80;99.90;;;;;;5031217;28;20557;-88
2022/09/29 02:59:19;;;;;;;;;;;6.80;99.90;;;;;;5030270;28;20037;-86
2022/09/29 03:01:53;;;;;;;10.77;6.93;;;6.80;99.90;;;;;;5032725;28;20019;-85
2022/09/29 03:04:21;;;;;;;5.07;4.22;;;7.30;99.90;;;;;;5033065;28;20040;-86
2022/09/29 03:06:47;;;;;;;5.30;4.40;;;7.20;99.90;;;;;;5013197;28;20166;-85
2022/09/29 03:09:13;;;;;;;5.93;4.53;;;6.70;99.90;;;;;;5002818;28;20072;-83
2022/09/29 03:11:38;;;;;;;5.10;4.47;;;6.70;99.90;;;;;;5016057;28;20568;-84
2022/09/29 03:14:05;;;;;;;19.52;6.75;;;7.70;99.90;;;;;;4998474;28;20037;-85
2022/09/29 03:16:32;;;;;;;8.63;4.40;;;6.70;99.90;;;;;;5018928;28;20037;-86
2022/09/29 03:18:58;;;;;;;12.32;4.65;;;6.60;99.90;;;;;;5034048;28;20607;-82
2022/09/29 03:21:23;;;;;;;5.85;3.58;;;6.60;99.90;;;;;;5000290;28;20185;-85
2022/09/29 03:23:49;;;;;;;5.47;4.45;;;7.40;99.90;;;;;;5034078;28;20045;-86
2022/09/29 03:26:15;;;;;;;8.45;4.30;;;6.90;99.90;;;;;;5018332;28;20038;-82
2022/09/29 03:28:41;;;;;;;4.78;4.15;;;6.50;99.90;;;;;;4996757;28;20037;-87
2022/09/29 03:31:08;;;;;;;13.68;4.53;;;6.50;99.90;;;;;;5015121;28;20025;-83
2022/09/29 03:33:38;;;;;;;11.25;5.13;;;7.50;99.90;;;;;;5014708;28;20041;-86
2022/09/29 03:36:06;;;;;;;18.45;5.88;;;6.90;99.90;;;;;;5050336;28;20544;-83
2022/09/29 03:38:32;;;;;;;16.00;5.20;;;6.50;99.90;;;;;;5032221;28;20559;-86
2022/09/29 03:40:58;;;;;;;7.75;4.68;;;6.50;99.90;;;;;;5014843;28;20037;-84
2022/09/29 03:43:23;;;;;;;9.60;5.28;;;6.80;99.90;;;;;;5017844;28;20102;-86
2022/09/29 03:45:51;;;;;;;12.20;5.78;;;6.50;99.90;;;;;;5032015;28;20045;-85
2022/09/29 03:48:18;;;;;;;4.28;3.70;;;6.50;99.90;;;;;;5032644;28;20420;-85
2022/09/29 03:50:45;;;;;;;8.38;3.95;;;6.40;99.90;;;;;;5017259;28;20083;-86
2022/09/29 03:53:11;;;;;;;4.53;4.13;;;6.40;99.90;;;;;;5035223;28;20098;-86
2022/09/29 03:55:37;;;;;;;15.45;5.75;;;7.00;99.90;;;;;;5034704;28;20037;-86
2022/09/29 03:58:03;;;;;;;4.85;3.95;;;6.40;99.90;;;;;;5002210;28;20029;-84
2022/09/29 04:00:29;;;;;;;5.53;4.70;;;6.30;99.90;;;;;;5036266;28;20090;-84
2022/09/29 04:02:54;;;;;;;5.50;4.28;;;6.30;99.90;;;;;;5020690;28;20033;-83
2022/09/29 04:05:20;;;;;;;5.93;4.47;;;7.30;99.90;;;;;;5018632;28;20513;-84
2022/09/29 04:07:46;;;;;;;5.22;4.72;;;7.20;99.90;;;;;;5004744;28;20037;-87
2022/09/29 04:10:12;;;;;;;6.68;5.45;;;6.30;99.90;;;;;;5015717;28;20441;-86
2022/09/29 04:12:38;;;;;;;7.18;5.43;;;6.30;99.90;;;;;;5015905;28;20040;-85
2022/09/29 04:15:05;;;;;;;5.72;5.10;;;6.90;99.90;;;;;;5003075;28;20037;-86
2022/09/29 04:17:30;;;;;;;6.55;5.70;;;6.30;99.90;;;;;;5033635;28;20489;-84
2022/09/29 04:19:56;;;;;;;7.80;6.20;;;6.30;99.90;;;;;;5036780;28;20126;-86
2022/09/29 04:22:22;;;;;;;6.72;6.03;;;6.30;99.90;;;;;;5025045;28;20134;-85
2022/09/29 04:24:47;;;;;;;8.52;6.38;;;6.90;99.90;;;;;;5019614;28;20389;-84
2022/09/29 04:27:14;;;;;;;7.18;5.97;;;6.60;99.90;;;;;;5016444;28;20044;-86
2022/09/29 04:29:40;;;;;;;8.48;5.88;;;6.30;99.90;;;;;;5031424;28;20174;-85
2022/09/29 04:32:06;;;;;;;7.88;6.68;;;7.30;99.90;;;;;;5018162;28;20037;-85
2022/09/29 04:34:32;;;;;;;8.60;6.75;;;6.40;99.90;;;;;;5010976;28;20388;-84
2022/09/29 04:36:58;;;;;;;8.95;7.10;;;7.20;99.90;;;;;;5037795;28;20089;-86
2022/09/29 04:39:24;;;;;;;11.13;5.75;;;6.30;99.90;;;;;;5018528;28;20040;-82
2022/09/29 04:41:50;;;;;;;14.40;8.25;;;6.90;99.90;;;;;;5016849;28;20113;-84
2022/09/29 04:44:19;;;;;;;8.57;6.97;;;6.80;99.90;;;;;;5019490;28;20039;-84
2022/09/29 04:46:44;;;;;;;9.88;7.60;;;7.20;99.90;;;;;;5034625;28;20037;-86
2022/09/29 04:49:10;;;;;;;15.93;9.90;;;7.30;99.90;;;;;;4998970;28;20641;-86
2022/09/29 04:51:36;;;;;;;8.90;7.35;;;7.30;99.90;;;;;;5045144;28;20569;-83
2022/09/29 04:54:02;;;;;;;12.68;7.15;;;6.80;99.90;;;;;;5025414;28;20507;-85
2022/09/29 04:56:30;;;;;;;9.25;6.80;;;6.30;99.90;;;;;;5002791;28;20044;-82
2022/09/29 04:58:57;;;;;;;11.18;8.35;;;6.40;99.90;;;;;;5020582;28;20040;-82
2022/09/29 05:01:23;;;;;;;17.42;8.95;;;7.10;99.90;;;;;;5016077;28;20037;-84
2022/09/29 05:03:49;;;;;;;64.63;11.88;;;6.40;99.90;;;;;;5000800;28;20045;-85
2022/09/29 05:06:16;;;;;;;24.38;8.90;;;6.90;99.90;;;;;;5017062;28;20056;-85
2022/09/29 05:08:41;;;;;;;10.43;7.22;;;6.30;99.90;;;;;;5016178;28;20094;-84
2022/09/29 05:11:08;;;;;;;14.32;8.27;;;6.90;99.90;;;;;;5015869;28;20068;-85
2022/09/29 05:13:35;;;;;;;28.48;8.20;;;6.30;99.90;;;;;;5016968;28;20118;-84
2022/09/29 05:20:01;;;;;;;28.33;8.52;;;6.30;99.90;;;;;;5031609;22;20410;-59
2022/09/29 05:22:26;;;;;;;14.82;7.70;;;6.30;99.90;;;;;;5052857;28;20132;-59
2022/09/29 05:24:52;;;;;;;16.20;8.30;;;6.30;99.90;;;;;;5052967;28;20072;-60
2022/09/29 05:27:18;;;;;;;14.68;8.02;;;6.30;99.90;;;;;;5051569;28;20294;-60
2022/09/29 05:29:44;;;;;;;17.60;9.05;;;6.30;99.90;;;;;;5051314;28;20048;-60
2022/09/29 05:32:11;;;;;;;14.85;8.32;;;6.20;99.90;;;;;;5052311;28;20029;-59
2022/09/29 05:34:36;;;;;;;8.57;7.43;;;6.20;99.90;;;;;;5052815;28;20044;-60
2022/09/29 05:37:03;;;;;;;7.35;6.55;;;6.30;99.90;;;;;;5053163;28;20403;-60
2022/09/29 05:39:33;;;;;;;11.23;9.30;;;6.20;99.90;;;;;;5052901;28;20103;-58
2022/09/29 05:41:59;;;;;;;11.80;7.60;;;6.20;99.90;;;;;;5051580;28;20041;-60
2022/09/29 05:44:25;;;;;;;10.98;7.45;;;6.20;99.90;;;;;;5051166;28;20400;-60
2022/09/29 05:46:51;;;;;;;10.75;9.30;;;6.20;99.90;;;;;;5051190;28;20144;-60
2022/09/29 05:49:18;;;;;;;9.82;7.80;;;6.30;99.90;;;;;;5030503;28;20049;-60
2022/09/29 05:51:44;;;;;;;9.50;7.45;;;6.20;99.90;;;;;;5068018;28;20043;-60
2022/09/29 05:54:10;;;;;;;10.88;9.10;;;6.20;99.90;;;;;;5051327;28;20045;-58
2022/09/29 05:56:36;;;;;;;8.35;7.18;;;6.30;99.90;;;;;;5051340;28;20120;-60
2022/09/29 05:59:01;;;;;;;9.70;7.93;;;6.30;99.90;;;;;;5052225;28;20051;-60
2022/09/29 06:01:27;;;;;;;8.65;7.53;;;6.20;99.90;;;;;;5052225;28;20458;-59
2022/09/29 06:03:54;;;;;;;10.23;8.35;;;6.20;99.90;;;;;;5050956;28;20049;-60
2022/09/29 06:06:22;;;;;;;9.57;8.10;;;6.20;99.90;;;;;;5052321;28;20037;-60
2022/09/29 06:08:49;;;;;;;10.15;8.32;;;6.20;99.90;;;;;;5050743;28;20087;-60
2022/09/29 06:11:18;;;;;;;9.70;7.55;;;6.20;99.90;;;;;;5051151;28;20029;-59
2022/09/29 06:13:46;;;;;;;11.95;8.20;;;6.20;99.90;;;;;;5052003;28;20041;-59
2022/09/29 06:16:12;;;;;;;9.68;8.02;;;6.20;99.90;;;;;;5051028;28;20068;-59
2022/09/29 06:18:38;;;;;;;9.88;8.18;;;6.30;99.90;;;;;;5050926;28;20373;-60
2022/09/29 06:21:12;;;;;;;7.88;6.20;;;6.30;99.90;;;;;;5050957;28;20090;-60
2022/09/29 06:23:38;;;;;;;8.73;6.63;;;6.30;99.90;;;;;;5051559;28;20040;-60
2022/09/29 06:26:07;;;;;;;8.68;7.65;;;6.30;99.90;;;;;;5051827;28;20068;-60
2022/09/29 06:28:33;;;;;;;7.55;6.75;;;6.30;99.90;;;;;;5051753;28;20120;-60
2022/09/29 06:31:02;;;;;;;7.40;6.70;;;6.30;99.90;;;;;;5042116;28;20071;-60
2022/09/29 06:33:29;;;;;;;11.20;7.78;;;6.40;99.90;;;;;;5063079;28;20052;-60
2022/09/29 06:38:40;;;;;;;12.82;9.05;;;6.60;99.90;;;;;;5047447;28;20351;-60
2022/09/29 06:41:07;;;;;;;8.25;7.22;;;6.80;99.90;;;;;;5043523;28;20106;-60
2022/09/29 06:43:33;;;;;;;11.50;8.20;;;7.00;99.90;;;;;;5037992;28;20416;-60
2022/09/29 06:45:59;;;;;;;25.90;10.15;;;7.10;99.90;;;;;;5049236;28;20045;-60
2022/09/29 06:48:25;;;;;;;18.48;9.02;;;7.10;99.90;;;;;;5050944;28;20039;-59
2022/09/29 06:50:51;;;;;;;12.00;9.10;;;7.20;99.90;;;;;;5050141;28;20063;-60
2022/09/29 06:53:17;;;;;;;9.52;7.82;;;7.30;99.90;;;;;;5051565;28;20037;-60
2022/09/29 06:55:43;;;;;;;12.60;8.63;;;7.30;99.90;;;;;;5045436;28;20045;-60
2022/09/29 06:58:09;;;;;;;8.43;7.57;;;7.40;99.90;;;;;;5038225;28;20056;-60
2022/09/29 07:00:36;;;;;;;10.10;8.45;;;7.30;99.90;;;;;;5030893;23;20046;-59
2022/09/29 07:03:02;;;;;;;10.43;9.38;;;7.40;99.90;;;;;;4995441;28;20053;-60
2022/09/29 07:05:28;;;;;;;25.52;11.98;;;7.40;99.90;;;;;;4993405;28;20033;-59
2022/09/29 07:07:54;;;;;;;24.35;11.57;;;7.50;99.90;;;;;;4994305;28;20043;-59
2022/09/29 07:10:20;;;;;;;21.15;12.10;;;7.70;99.90;;;;;;4990095;28;20116;-57
2022/09/29 07:12:46;;;;;;;12.75;9.60;;;7.80;99.90;;;;;;4975275;28;20038;-59
2022/09/29 07:15:12;;;;;;;12.63;9.52;;;7.90;99.90;;;;;;4974447;28;20499;-60
2022/09/29 07:17:39;;;;;;;15.00;10.18;;;8.00;99.90;;;;;;4971577;28;20734;-58
2022/09/29 07:20:06;;;;;;;11.13;9.60;;;8.00;99.90;;;;;;4972849;28;20054;-59
2022/09/29 07:22:32;;;;;;;11.93;10.40;;;8.10;99.90;;;;;;4976585;28;20035;-59
2022/09/29 07:24:57;;;;;;;12.10;10.35;;;8.10;99.90;;;;;;4980555;28;20061;-59
2022/09/29 07:27:23;;;;;;;11.52;9.77;;;8.40;99.90;;;;;;4979588;28;20097;-59
2022/09/29 07:29:52;;;;;;;15.52;11.98;;;8.20;99.90;;;;;;4984299;28;20053;-58
2022/09/29 07:32:18;;;;;;;20.70;12.80;;;8.20;99.90;;;;;;4973294;28;20031;-60
2022/09/29 07:34:44;;;;;;;20.33;12.55;;;8.20;99.90;;;;;;4977113;28;20042;-58
2022/09/29 07:37:13;;;;;;;18.55;14.07;;;8.30;99.90;;;;;;4979154;28;20504;-58
2022/09/29 07:39:38;;;;;;;21.88;14.13;;;8.40;99.90;;;;;;4985424;28;20046;-57
2022/09/29 07:42:04;;;;;;;23.20;16.67;;;8.50;99.90;;;;;;4987150;28;20038;-58
2022/09/29 07:44:31;;;;;;;23.63;17.10;;;8.60;99.90;;;;;;4985738;28;20076;-58
2022/09/29 07:46:57;;;;;;;28.08;17.88;;;8.70;99.90;;;;;;4986870;28;20166;-61
2022/09/29 07:49:23;;;;;;;24.50;18.42;;;8.70;99.90;;;;;;4983712;28;20559;-61
2022/09/29 07:51:49;;;;;;;25.73;18.27;;;8.90;99.90;;;;;;4984243;28;20042;-61
2022/09/29 07:54:15;;;;;;;25.13;19.80;;;9.00;99.90;;;;;;4984823;28;20035;-61
2022/09/29 07:56:40;;;;;;;21.98;18.10;;;9.20;99.90;;;;;;4983200;28;20042;-61
2022/09/29 07:59:08;;;;;;;21.83;17.17;;;9.40;99.90;;;;;;4983803;28;20046;-61
2022/09/29 08:01:34;;;;;;;22.35;17.83;;;9.60;99.90;;;;;;4989670;28;20066;-61
2022/09/29 08:04:01;;;;;;;20.52;16.65;;;9.80;99.90;;;;;;4979829;28;20469;-61
2022/09/29 08:06:27;;;;;;;23.10;17.60;;;10.00;99.90;;;;;;4980984;28;20401;-61
2022/09/29 08:08:53;;;;;;;22.50;16.95;;;10.10;99.90;;;;;;4984341;28;20412;-62
2022/09/29 08:11:20;;;;;;;19.45;15.73;;;10.20;99.90;;;;;;4999165;28;20079;-61
2022/09/29 08:13:47;;;;;;;19.98;16.30;;;10.40;99.90;;;;;;4998309;28;20780;-61
2022/09/29 08:16:13;;;;;;;20.35;16.30;;;10.60;99.90;;;;;;4981402;28;20379;-61
2022/09/29 08:18:40;;;;;;;21.30;16.15;;;10.80;99.90;;;;;;4984732;28;20489;-61
2022/09/29 08:21:06;;;;;;;21.77;17.48;;;10.90;99.90;;;;;;4982653;28;20078;-61
2022/09/29 08:23:37;;;;;;;20.77;16.35;;;11.10;99.90;;;;;;4983072;28;20096;-59
2022/09/29 08:26:06;;;;;;;18.95;15.65;;;11.20;99.90;;;;;;4980328;28;20129;-61
2022/09/29 08:28:33;;;;;;;20.33;16.73;;;11.30;99.90;;;;;;4983015;28;20050;-61
2022/09/29 08:31:08;;;;;;;21.42;17.95;;;11.40;99.90;;;;;;4984991;28;20445;-61
2022/09/29 08:33:35;;;;;;;22.95;17.77;;;11.50;99.90;;;;;;4980670;28;20433;-61
2022/09/29 08:36:06;;;;;;;21.63;17.45;;;11.70;99.90;;;;;;4984583;28;20038;-61
2022/09/29 08:38:32;;;;;;;23.52;16.02;;;11.80;99.90;;;;;;4982278;28;20046;-61
2022/09/29 08:41:04;;;;;;;20.05;16.10;;;12.00;99.90;;;;;;4988143;28;20293;-61
2022/09/29 08:43:39;;;;;;;18.75;14.77;;;12.10;99.90;;;;;;4986775;28;20209;-61
2022/09/29 08:46:06;;;;;;;20.15;15.77;;;12.20;99.90;;;;;;4986006;28;20121;-61
2022/09/29 08:48:38;;;;;;;19.90;15.10;;;12.40;99.90;;;;;;4985830;28;20048;-61
2022/09/29 08:51:11;;;;;;;20.95;13.63;;;12.50;99.90;;;;;;4986118;28;20618;-61
2022/09/29 08:53:44;;;;;;;20.27;15.93;;;12.60;99.90;;;;;;4988755;28;20444;-61
2022/09/29 08:56:15;;;;;;;19.35;14.82;;;12.80;99.90;;;;;;4985371;28;20053;-61
2022/09/29 08:58:40;;;;;;;17.70;13.75;;;12.90;99.90;;;;;;4982086;28;20492;-61
2022/09/29 09:01:08;;;;;;;17.45;14.55;;;13.00;99.90;;;;;;4986687;28;20125;-61
2022/09/29 09:03:52;;;;;;;19.27;14.80;;;13.10;99.90;;;;;;4980982;28;20038;-62
2022/09/29 09:06:26;;;;;;;17.58;12.60;;;13.20;99.90;;;;;;4977712;28;20142;-61
2022/09/29 09:09:21;;;;;;;18.88;14.52;;;13.30;99.90;;;;;;4985877;28;21078;-60
2022/09/29 09:12:17;;;;;;;16.85;11.55;;;13.50;99.90;;;;;;5004429;28;20042;-59
2022/09/29 09:14:54;;;;;;;14.57;11.88;;;13.60;99.90;;;;;;4996362;28;20034;-59
2022/09/29 09:17:42;;;;;;;14.93;11.55;;;13.80;99.90;;;;;;4985398;28;20096;-61
2022/09/29 09:20:17;;;;;;;15.10;10.13;;;13.90;99.90;;;;;;4983452;28;20421;-61
2022/09/29 09:22:55;;;;;;;10.10;8.20;;;14.00;99.90;;;;;;4982043;28;20053;-60
2022/09/29 09:25:31;;;;;;;11.10;8.57;;;13.90;99.90;;;;;;4986599;28;20053;-59
2022/09/29 09:28:16;;;;;;;12.60;8.23;;;14.00;99.90;;;;;;4983667;28;20030;-60
2022/09/29 09:31:08;;;;;;;6.22;5.28;;;14.00;99.90;;;;;;5001628;28;20088;-59
2022/09/29 09:33:49;;;;;;;6.15;5.13;;;14.10;99.90;;;;;;4978833;28;20114;-58
2022/09/29 09:36:22;;;;;;;7.07;5.13;;;14.20;99.90;;;;;;4981274;28;20050;-60
2022/09/29 09:39:13;;;;;;;7.00;5.77;;;14.30;99.90;;;;;;4984674;28;20453;-60
2022/09/29 09:41:41;;;;;;;8.15;5.40;;;14.40;99.90;;;;;;4977987;28;20046;-60
2022/09/29 09:44:19;;;;;;;6.55;4.90;;;14.60;99.90;;;;;;4979231;28;20042;-60
2022/09/29 09:47:01;;;;;;;6.25;5.30;;;14.70;99.90;;;;;;4982394;28;20046;-59
2022/09/29 09:49:42;;;;;;;7.03;4.70;;;14.80;99.90;;;;;;4979604;28;20129;-59
2022/09/29 09:52:21;;;;;;;6.95;5.18;;;14.90;99.90;;;;;;4977462;28;20038;-59
2022/09/29 09:55:13;;;;;;;7.35;5.85;;;15.00;99.90;;;;;;4980432;28;20030;-58
2022/09/29 09:57:46;;;;;;;8.30;6.20;;;15.10;99.90;;;;;;4951391;28;20054;-56
2022/09/29 10:00:27;;;;;;;9.23;6.77;;;15.30;99.90;;;;;;4967301;28;20045;-58
2022/09/29 10:02:55;;;;;;;7.00;5.50;;;15.40;99.90;;;;;;4995811;28;20117;-58
2022/09/29 10:05:35;;;;;;;5.22;4.05;;;15.50;99.90;;;;;;4988957;28;20057;-57
2022/09/29 10:08:02;;;;;;;6.07;3.67;;;15.60;99.90;;;;;;4975881;28;20466;-59
2022/09/29 10:10:30;;;;;;;5.03;3.38;;;15.50;99.90;;;;;;4976215;28;20880;-58
2022/09/29 10:12:55;;;;;;;4.00;3.17;;;15.50;99.90;;;;;;4977772;28;20034;-59
2022/09/29 10:15:27;;;;;;;4.13;2.83;;;15.60;99.90;;;;;;4979160;28;20410;-59
2022/09/29 10:18:20;;;;;;;4.00;2.53;;;15.70;99.90;;;;;;4977695;28;20046;-58
2022/09/29 10:20:46;;;;;;;4.63;2.80;;;15.80;99.90;;;;;;5009208;28;20119;-58
2022/09/29 10:23:17;;;;;;;4.32;3.25;;;15.90;99.90;;;;;;4979297;28;20042;-59
2022/09/29 10:25:56;;;;;;;3.85;3.08;;;16.10;99.90;;;;;;4970145;28;20506;-58
2022/09/29 10:28:24;;;;;;;5.32;3.42;;;16.20;99.90;;;;;;4975007;28;20046;-59
2022/09/29 10:30:52;;;;;;;5.15;2.90;;;16.20;99.90;;;;;;4975311;28;20707;-59
2022/09/29 10:33:21;;;;;;;5.43;3.20;;;16.10;99.90;;;;;;4975574;28;20096;-59
2022/09/29 10:35:51;;;;;;;5.53;3.60;;;16.20;99.90;;;;;;4961010;28;20397;-56
2022/09/29 10:38:26;;;;;;;4.18;3.08;;;16.30;99.90;;;;;;4971260;28;20125;-59
2022/09/29 10:41:03;;;;;;;5.43;3.00;;;16.20;99.90;;;;;;4982496;28;20042;-59
2022/09/29 10:43:40;;;;;;;4.60;3.05;;;16.20;99.90;;;;;;4980718;28;20572;-59
2022/09/29 10:46:44;;;;;;;4.95;2.80;;;16.10;99.90;;;;;;4980189;28;20185;-57
2022/09/29 10:49:12;;;;;;;5.03;3.22;;;16.10;99.90;;;;;;4982356;28;20568;-59
2022/09/29 10:51:49;;;;;;;5.40;3.15;;;16.10;99.90;;;;;;4980139;28;20061;-58
2022/09/29 10:54:16;;;;;;;4.13;3.22;;;16.00;99.90;;;;;;4996360;28;20119;-58
2022/09/29 10:56:48;;;;;;;4.68;2.50;;;16.20;99.90;;;;;;4963144;28;20038;-59
2022/09/29 10:59:16;;;;;;;3.83;1.95;;;16.30;99.90;;;;;;4980222;28;20560;-60
2022/09/29 11:01:49;;;;;;;2.25;1.52;;;16.40;99.90;;;;;;4981285;28;20044;-59
2022/09/29 11:04:28;;;;;;;3.83;2.10;;;16.30;99.90;;;;;;4974281;28;20321;-58
2022/09/29 11:06:56;;;;;;;3.28;2.45;;;16.10;99.90;;;;;;4975979;28;20379;-59
2022/09/29 11:09:25;;;;;;;3.53;2.50;;;16.10;99.90;;;;;;4979170;28;21531;-58
2022/09/29 11:11:53;;;;;;;5.18;2.85;;;16.10;99.90;;;;;;4976795;28;20413;-57
2022/09/29 11:14:35;;;;;;;4.18;3.03;;;16.30;99.90;;;;;;4977058;28;20518;-59
2022/09/29 11:17:18;;;;;;;5.13;3.10;;;16.50;99.90;;;;;;4980335;28;20394;-59
2022/09/29 11:19:45;;;;;;;3.23;2.03;;;16.20;99.90;;;;;;4974376;28;20070;-58
2022/09/29 11:22:41;;;;;;;3.72;2.60;;;15.90;99.90;;;;;;4970375;28;20100;-59
2022/09/29 11:25:25;;;;;;;3.05;2.08;;;15.70;99.90;;;;;;4976594;28;20048;-56
2022/09/29 11:27:51;;;;;;;2.95;1.92;;;15.40;99.90;;;;;;4976317;28;20056;-58
2022/09/29 11:30:23;;;;;;;2.92;1.60;;;15.40;99.90;;;;;;5012707;28;20038;-58
2022/09/29 11:33:19;;;;;;;4.40;1.98;;;15.60;99.90;;;;;;4995608;28;20117;-57
2022/09/29 11:35:56;;;;;;;2.75;1.90;;;15.60;99.90;;;;;;4984633;28;20053;-57
2022/09/29 11:38:50;;;;;;;5.03;2.08;;;15.90;99.90;;;;;;4997628;28;20458;-58
2022/09/29 11:41:28;;;;;;;4.57;2.10;;;15.90;99.90;;;;;;4982208;28;20048;-58
2022/09/29 11:44:00;;;;;;;22.00;11.00;;;16.00;99.90;;;;;;5011864;28;20072;-61
2022/09/29 11:47:00;;;;;;;106.80;38.75;;;16.10;99.90;;;;;;4977809;28;20438;-58
2022/09/29 11:49:38;;;;;;;6.53;3.13;;;16.50;99.90;;;;;;4977698;28;20042;-58
2022/09/29 11:52:37;;;;;;;5.18;2.33;;;16.50;99.50;;;;;;4983852;28;20733;-58
2022/09/29 11:55:29;;;;;;;2.92;1.63;;;16.60;99.30;;;;;;4975335;28;20042;-59
2022/09/29 11:58:06;;;;;;;5.28;1.60;;;16.70;99.20;;;;;;4982983;28;20406;-59
2022/09/29 12:00:53;;;;;;;1.77;1.05;;;17.10;99.80;;;;;;4994936;28;20057;-58
2022/09/29 12:03:57;;;;;;;2.30;1.30;;;17.30;99.10;;;;;;4981087;28;20043;-58
2022/09/29 12:06:42;;;;;;;1.83;1.30;;;17.30;98.90;;;;;;4976917;28;20083;-59
2022/09/29 12:09:26;;;;;;;3.60;1.10;;;16.90;96.30;;;;;;4977952;28;20125;-58
2022/09/29 12:12:13;;;;;;;1.95;0.80;;;16.60;97.10;;;;;;4987179;28;20524;-57
2022/09/29 12:15:03;;;;;;;1.73;1.20;;;16.30;97.60;;;;;;4988520;28;20065;-58
2022/09/29 12:17:34;;;;;;;2.42;1.10;;;16.00;98.60;;;;;;4983592;28;20049;-58
2022/09/29 12:20:05;;;;;;;1.27;0.70;;;15.60;98.50;;;;;;4988756;28;20038;-59
2022/09/29 12:22:32;;;;;;;1.25;0.77;;;15.40;99.00;;;;;;4988534;28;20290;-58
2022/09/29 12:24:59;;;;;;;1.58;0.93;;;15.30;99.50;;;;;;5019731;28;20054;-59
2022/09/29 12:27:33;;;;;;;2.75;0.93;;;15.20;99.40;;;;;;4979909;28;20525;-59
2022/09/29 12:30:22;;;;;;;2.50;1.15;;;15.10;99.70;;;;;;4988376;28;20068;-58
2022/09/29 12:32:57;;;;;;;2.97;1.17;;;15.10;99.60;;;;;;4983438;28;20039;-58
2022/09/29 12:35:28;;;;;;;3.67;1.10;;;15.10;99.60;;;;;;4980122;28;20130;-58
2022/09/29 12:38:33;;;;;;;1.83;0.88;;;15.10;99.90;;;;;;4988869;28;20375;-58
2022/09/29 12:41:15;;;;;;;;;;;15.20;99.90;;;;;;4983776;28;20046;-59
2022/09/29 12:43:59;;;;;;;3.10;1.10;;;15.30;99.90;;;;;;4982161;28;19952;-59
2022/09/29 12:46:30;;;;;;;3.30;1.00;;;15.30;99.90;;;;;;4982585;28;20039;-57
2022/09/29 12:49:24;;;;;;;2.30;1.23;;;15.20;99.90;;;;;;5009895;28;20038;-59
2022/09/29 12:51:51;;;;;;;2.33;1.25;;;15.20;99.90;;;;;;4985777;28;20035;-60
2022/09/29 12:54:43;;;;;;;1.58;0.80;;;15.00;99.90;;;;;;4987314;28;20034;-58
2022/09/29 12:57:22;;;;;;;2.10;1.10;;;15.20;99.90;;;;;;4983668;28;20070;-59
2022/09/29 13:00:05;;;;;;;2.65;0.88;;;15.20;99.90;;;;;;5030158;22;20057;-81
2022/09/29 13:02:39;;;;;;;1.90;1.10;;;15.20;99.90;;;;;;5030157;28;20042;-81
2022/09/29 13:05:17;;;;;;;2.08;1.00;;;15.40;99.90;;;;;;5012401;28;20037;-82
2022/09/29 13:08:14;;;;;;;2.15;1.05;;;15.40;99.90;;;;;;5013392;28;20044;-81
2022/09/29 13:10:58;;;;;;;1.73;1.10;;;15.50;99.90;;;;;;5019064;28;20070;-81
2022/09/29 13:13:56;;;;;;;2.85;0.98;;;15.60;99.90;;;;;;5014273;28;20262;-81
2022/09/29 13:16:33;;;;;;;2.13;0.90;;;15.60;99.90;;;;;;4994940;28;20395;-82
2022/09/29 13:19:18;;;;;;;3.05;1.25;;;15.60;99.90;;;;;;4992006;28;20038;-80
2022/09/29 13:22:07;;;;;;;1.85;1.20;;;15.70;99.90;;;;;;5015767;28;20088;-82